Time;durP1;ratioP1;P1;durP2;ratioP2;P2;SDS_P1;SDS_P2;PMS_P1;PMS_P2;Temp;Humidity;BMP_temperature;BMP_pressure;BME280_temperature;BME280_humidity;BME280_pressure;Samples;Min_cycle;Max_cycle;Signal;HPM_P1;HPM_P2
2023/12/01 00:00:37;;;;;;;120.57;32.83;;;;;;;1.38;100.00;100320.81;5215923;28;20021;-72
2023/12/01 00:03:08;;;;;;;120.80;33.47;;;;;;;1.34;100.00;100324.63;5218775;28;20039;-72
2023/12/01 00:05:39;;;;;;;122.32;31.92;;;;;;;1.38;100.00;100325.25;5209264;28;20018;-72
2023/12/01 00:08:09;;;;;;;102.95;30.20;;;;;;;1.40;100.00;100328.59;5208196;28;20052;-72
2023/12/01 00:10:40;;;;;;;108.60;30.60;;;;;;;1.38;100.00;100338.47;5206561;28;20557;-72
2023/12/01 00:13:10;;;;;;;121.70;33.47;;;;;;;1.32;100.00;100342.44;5211319;28;20033;-72
2023/12/01 00:15:41;;;;;;;116.43;31.58;;;;;;;1.32;100.00;100350.34;5208514;28;20023;-72
2023/12/01 00:18:11;;;;;;;122.35;33.67;;;;;;;1.34;100.00;100345.78;5214362;28;20041;-72
2023/12/01 00:20:43;;;;;;;113.25;33.17;;;;;;;1.35;100.00;100349.25;5210207;28;20965;-72
2023/12/01 00:23:13;;;;;;;115.50;31.30;;;;;;;1.38;100.00;100349.03;5215644;28;20492;-72
2023/12/01 00:25:44;;;;;;;105.45;32.33;;;;;;;1.38;100.00;100354.31;5218472;28;20029;-72
2023/12/01 00:28:14;;;;;;;122.38;33.33;;;;;;;1.43;100.00;100355.66;5213843;28;20038;-72
2023/12/01 00:30:45;;;;;;;105.80;33.38;;;;;;;1.41;100.00;100346.16;5219089;28;20025;-72
2023/12/01 00:33:15;;;;;;;124.50;34.83;;;;;;;1.40;100.00;100350.59;5205370;28;20492;-72
2023/12/01 00:35:45;;;;;;;113.18;32.65;;;;;;;1.41;100.00;100351.47;5216554;28;20040;-72
2023/12/01 00:38:17;;;;;;;121.97;33.40;;;;;;;1.39;100.00;100348.06;5215236;28;20036;-72
2023/12/01 00:40:47;;;;;;;124.07;35.85;;;;;;;1.40;100.00;100352.41;5206057;28;20114;-72
2023/12/01 00:43:18;;;;;;;129.68;34.78;;;;;;;1.36;100.00;100343.88;5213226;28;20029;-72
2023/12/01 00:45:48;;;;;;;113.85;34.72;;;;;;;1.38;100.00;100351.69;5209205;28;20060;-72
2023/12/01 00:48:19;;;;;;;117.80;32.95;;;;;;;1.34;100.00;100350.22;5216478;28;20049;-72
2023/12/01 00:50:50;;;;;;;114.05;33.92;;;;;;;1.35;100.00;100344.81;5211240;28;20100;-72
2023/12/01 00:53:20;;;;;;;119.50;35.63;;;;;;;1.31;100.00;100353.97;5213370;28;20408;-72
2023/12/01 00:55:51;;;;;;;119.18;34.63;;;;;;;1.30;100.00;100352.25;5209550;28;20034;-72
2023/12/01 00:58:21;;;;;;;116.00;35.30;;;;;;;1.29;100.00;100353.22;5208181;28;20430;-72
2023/12/01 01:00:52;;;;;;;116.32;33.13;;;;;;;1.29;100.00;100356.72;5214672;28;20021;-72
2023/12/01 01:03:23;;;;;;;107.93;33.75;;;;;;;1.29;100.00;100359.34;5218380;28;20025;-72
2023/12/01 01:05:53;;;;;;;119.70;36.65;;;;;;;1.33;100.00;100367.91;5215241;28;20438;-72
2023/12/01 01:08:24;;;;;;;125.35;33.85;;;;;;;1.34;100.00;100363.44;5213122;28;20056;-72
2023/12/01 01:10:54;;;;;;;111.90;32.70;;;;;;;1.35;100.00;100362.47;5210648;28;20056;-72
2023/12/01 01:13:28;;;;;;;125.47;36.65;;;;;;;1.36;100.00;100369.47;5217614;28;20037;-72
2023/12/01 01:15:58;;;;;;;111.43;34.80;;;;;;;1.33;100.00;100367.06;5207684;28;20176;-72
2023/12/01 01:18:29;;;;;;;116.10;34.40;;;;;;;1.29;100.00;100358.50;5212176;28;20658;-72
2023/12/01 01:21:00;;;;;;;118.65;35.63;;;;;;;1.24;100.00;100365.97;5205638;28;20029;-72
2023/12/01 01:23:30;;;;;;;102.00;31.48;;;;;;;1.17;100.00;100365.59;5207551;28;20025;-72
2023/12/01 01:26:02;;;;;;;122.90;35.65;;;;;;;1.09;100.00;100359.22;5207736;28;20029;-72
2023/12/01 01:28:33;;;;;;;125.32;35.42;;;;;;;0.97;100.00;100367.13;5207851;28;20032;-72
2023/12/01 01:31:04;;;;;;;116.55;33.50;;;;;;;0.88;100.00;100353.75;5215282;28;20397;-72
2023/12/01 01:33:36;;;;;;;119.72;33.78;;;;;;;0.87;100.00;100367.94;5204746;28;20018;-72
2023/12/01 01:36:07;;;;;;;122.60;35.08;;;;;;;0.83;100.00;100379.69;5203711;28;20029;-72
2023/12/01 01:38:37;;;;;;;120.95;34.38;;;;;;;0.83;100.00;100372.59;5212623;28;20037;-72
2023/12/01 01:41:08;;;;;;;114.45;33.83;;;;;;;0.85;100.00;100377.75;5208105;28;20082;-71
2023/12/01 01:43:38;;;;;;;131.85;34.65;;;;;;;0.87;100.00;100375.84;5215628;28;20075;-72
2023/12/01 01:46:11;;;;;;;123.78;35.80;;;;;;;0.86;100.00;100376.81;5209510;28;20484;-72
2023/12/01 01:48:43;;;;;;;129.20;37.72;;;;;;;0.94;100.00;100377.91;5214586;28;20074;-72
2023/12/01 01:51:14;;;;;;;119.65;35.65;;;;;;;0.97;100.00;100380.31;5212982;28;20025;-72
2023/12/01 01:53:45;;;;;;;136.40;36.10;;;;;;;1.00;100.00;100373.94;5211418;28;20099;-72
2023/12/01 01:56:16;;;;;;;131.18;37.75;;;;;;;1.02;100.00;100374.69;5210285;28;20029;-72
2023/12/01 01:58:47;;;;;;;121.00;35.70;;;;;;;1.01;100.00;100373.03;5210486;28;20107;-72
2023/12/01 02:01:18;;;;;;;130.68;36.50;;;;;;;0.98;100.00;100379.34;5215817;28;20024;-72
2023/12/01 02:03:49;;;;;;;125.50;37.30;;;;;;;0.96;100.00;100377.81;5216249;28;20025;-72
2023/12/01 02:06:30;;;;;;;124.18;35.35;;;;;;;0.96;100.00;100376.00;5208456;28;20503;-72
2023/12/01 02:09:02;;;;;;;128.30;35.25;;;;;;;0.93;100.00;100373.59;5205673;28;20056;-72
2023/12/01 02:11:35;;;;;;;123.30;35.78;;;;;;;0.92;100.00;100379.84;5214444;28;20096;-71
2023/12/01 02:14:06;;;;;;;134.85;37.03;;;;;;;0.87;100.00;100378.50;5221538;28;20496;-72
2023/12/01 02:16:45;;;;;;;136.40;35.70;;;;;;;0.86;100.00;100382.09;5217521;28;20024;-72
2023/12/01 02:19:15;;;;;;;136.07;37.80;;;;;;;0.84;100.00;100379.56;5212145;28;20025;-72
2023/12/01 02:21:47;;;;;;;123.53;34.25;;;;;;;0.78;100.00;100374.75;5214331;28;20472;-71
2023/12/01 02:24:17;;;;;;;115.88;34.92;;;;;;;0.77;100.00;100376.53;5218225;28;20024;-71
2023/12/01 02:26:48;;;;;;;121.38;37.67;;;;;;;0.80;100.00;100382.53;5216853;28;20033;-73
2023/12/01 02:29:18;;;;;;;123.53;35.78;;;;;;;0.83;100.00;100377.03;5214235;28;20492;-74
2023/12/01 02:31:49;;;;;;;139.70;38.70;;;;;;;0.85;100.00;100383.88;5214668;28;20427;-73
2023/12/01 02:34:21;;;;;;;137.15;37.10;;;;;;;0.89;100.00;100385.34;5208968;28;20043;-73
2023/12/01 02:36:53;;;;;;;132.50;37.42;;;;;;;0.90;100.00;100388.81;5216155;28;20032;-73
2023/12/01 02:39:24;;;;;;;128.30;35.20;;;;;;;0.93;100.00;100391.22;5214381;28;20467;-73
2023/12/01 02:41:54;;;;;;;118.32;35.40;;;;;;;0.98;100.00;100391.72;5208681;28;20316;-73
2023/12/01 02:44:25;;;;;;;134.25;38.30;;;;;;;0.99;100.00;100396.88;5216152;28;20032;-73
2023/12/01 02:46:55;;;;;;;135.07;36.47;;;;;;;1.02;100.00;100393.19;5221855;28;20035;-73
2023/12/01 02:49:26;;;;;;;135.88;37.13;;;;;;;1.07;100.00;100398.97;5213203;28;20021;-73
2023/12/01 02:51:57;;;;;;;141.82;38.30;;;;;;;1.07;100.00;100400.75;5221317;28;20075;-73
2023/12/01 02:54:28;;;;;;;136.38;37.15;;;;;;;1.11;100.00;100403.06;5208355;28;20099;-71
2023/12/01 02:56:59;;;;;;;130.70;33.20;;;;;;;1.12;100.00;100395.97;5216756;28;20021;-71
2023/12/01 02:59:29;;;;;;;119.43;37.20;;;;;;;1.12;100.00;100401.25;5218551;28;20055;-71
2023/12/01 03:01:59;;;;;;;105.32;33.58;;;;;;;1.14;100.00;100391.41;5219534;28;20048;-71
2023/12/01 03:04:30;;;;;;;135.50;35.10;;;;;;;1.15;100.00;100393.91;5214343;28;20029;-73
2023/12/01 03:07:04;;;;;;;128.13;35.72;;;;;;;1.19;100.00;100400.66;5216521;28;20036;-73
2023/12/01 03:09:34;;;;;;;120.25;34.70;;;;;;;1.21;100.00;100397.91;5215955;28;20063;-73
2023/12/01 03:12:05;;;;;;;117.35;35.53;;;;;;;1.23;100.00;100412.69;5218327;28;20433;-73
2023/12/01 03:14:35;;;;;;;126.85;35.70;;;;;;;1.24;100.00;100408.25;5218706;28;20029;-73
2023/12/01 03:17:06;;;;;;;121.82;36.58;;;;;;;1.25;100.00;100402.00;5211440;28;20037;-73
2023/12/01 03:19:37;;;;;;;129.32;38.08;;;;;;;1.24;100.00;100406.44;5211105;28;20033;-73
2023/12/01 03:22:07;;;;;;;115.88;33.97;;;;;;;1.26;100.00;100403.69;5215011;28;20066;-73
2023/12/01 03:24:41;;;;;;;118.80;34.67;;;;;;;1.25;100.00;100400.19;5215995;28;20025;-73
2023/12/01 03:27:12;;;;;;;120.80;34.03;;;;;;;1.24;100.00;100409.06;5218847;28;20083;-73
2023/12/01 03:29:43;;;;;;;117.35;33.95;;;;;;;1.26;100.00;100407.19;5213659;28;20025;-73
2023/12/01 03:32:15;;;;;;;119.75;34.75;;;;;;;1.24;100.00;100409.06;5216412;28;20079;-73
2023/12/01 03:34:45;;;;;;;130.40;35.80;;;;;;;1.24;100.00;100409.06;5212006;28;20033;-73
2023/12/01 03:37:16;;;;;;;113.93;34.28;;;;;;;1.25;100.00;100408.13;5215952;28;20083;-73
2023/12/01 03:39:46;;;;;;;117.20;36.80;;;;;;;1.27;100.00;100418.59;5206578;28;20029;-73
2023/12/01 03:42:16;;;;;;;128.23;35.13;;;;;;;1.26;100.00;100412.47;5209352;28;20082;-73
2023/12/01 03:44:47;;;;;;;119.55;33.80;;;;;;;1.25;100.00;100416.03;5207821;28;20029;-73
2023/12/01 03:47:17;;;;;;;117.47;36.65;;;;;;;1.27;100.00;100416.78;5219727;28;20024;-74
2023/12/01 03:49:48;;;;;;;121.43;36.35;;;;;;;1.28;100.00;100422.91;5214313;28;20028;-73
2023/12/01 03:52:18;;;;;;;111.85;34.05;;;;;;;1.27;100.00;100426.50;5215518;28;20128;-73
2023/12/01 03:54:49;;;;;;;120.80;36.25;;;;;;;1.26;100.00;100432.75;5214007;28;20086;-73
2023/12/01 03:57:19;;;;;;;120.78;34.97;;;;;;;1.25;100.00;100434.53;5206619;28;20026;-74
2023/12/01 03:59:50;;;;;;;112.00;35.75;;;;;;;1.26;100.00;100430.97;5213663;28;20031;-73
2023/12/01 04:02:21;;;;;;;115.18;33.90;;;;;;;1.24;100.00;100439.94;5210120;28;20032;-73
2023/12/01 04:04:52;;;;;;;102.88;31.63;;;;;;;1.27;100.00;100447.66;5214133;28;20025;-73
2023/12/01 04:07:23;;;;;;;111.55;32.05;;;;;;;1.28;100.00;100450.19;5202696;28;20396;-73
2023/12/01 04:09:53;;;;;;;107.68;33.25;;;;;;;1.31;100.00;100449.13;5212796;28;20079;-73
2023/12/01 04:12:24;;;;;;;109.25;32.28;;;;;;;1.30;100.00;100455.34;5215009;28;20032;-70
2023/12/01 04:14:54;;;;;;;110.63;33.15;;;;;;;1.26;100.00;100449.47;5215787;28;20530;-69
2023/12/01 04:17:24;;;;;;;98.75;29.95;;;;;;;1.26;100.00;100459.19;5216707;28;20029;-70
2023/12/01 04:19:55;;;;;;;95.88;30.92;;;;;;;1.26;100.00;100454.75;5212431;28;20025;-70
2023/12/01 04:22:25;;;;;;;97.43;30.10;;;;;;;1.29;100.00;100461.59;5201797;28;20412;-72
2023/12/01 04:24:56;;;;;;;98.15;29.38;;;;;;;1.25;100.00;100458.31;5217575;28;20039;-72
2023/12/01 04:27:26;;;;;;;98.82;30.08;;;;;;;1.24;100.00;100477.78;5218194;28;20029;-72
2023/12/01 04:29:57;;;;;;;94.78;28.63;;;;;;;1.21;100.00;100472.75;5214727;28;20033;-72
2023/12/01 04:32:27;;;;;;;92.55;28.15;;;;;;;1.16;100.00;100469.59;5214834;28;20037;-72
2023/12/01 04:34:58;;;;;;;95.55;29.13;;;;;;;1.12;100.00;100473.44;5211445;28;20031;-72
2023/12/01 04:37:30;;;;;;;94.65;29.25;;;;;;;1.11;100.00;100476.19;5215246;28;20079;-72
2023/12/01 04:40:00;;;;;;;97.28;27.52;;;;;;;1.13;100.00;100474.28;5214089;28;20021;-72
2023/12/01 04:42:31;;;;;;;102.72;27.92;;;;;;;1.17;100.00;100481.03;5210810;28;20025;-72
2023/12/01 04:45:01;;;;;;;95.90;27.95;;;;;;;1.19;100.00;100477.28;5213214;28;20036;-70
2023/12/01 04:47:33;;;;;;;93.05;26.58;;;;;;;1.18;100.00;100483.53;5211312;28;20052;-70
2023/12/01 04:50:12;;;;;;;86.47;26.08;;;;;;;1.18;100.00;100482.69;5215482;28;20032;-71
2023/12/01 04:52:46;;;;;;;98.50;27.08;;;;;;;1.13;100.00;100480.41;5216569;28;20055;-70
2023/12/01 04:55:18;;;;;;;77.03;24.73;;;;;;;1.13;100.00;100476.91;5214102;28;20400;-70
2023/12/01 04:57:48;;;;;;;89.47;26.42;;;;;;;1.11;100.00;100482.31;5205604;28;20472;-70
2023/12/01 05:00:22;;;;;;;88.88;26.15;;;;;;;1.13;100.00;100479.56;5217470;28;20040;-70
2023/12/01 05:02:55;;;;;;;83.17;24.60;;;;;;;1.13;100.00;100487.47;5219255;28;20020;-70
2023/12/01 05:05:32;;;;;;;91.50;26.38;;;;;;;1.10;100.00;100485.91;5201186;28;20041;-70
2023/12/01 05:08:05;;;;;;;93.97;25.85;;;;;;;1.08;100.00;100485.19;5213595;28;20033;-70
2023/12/01 05:10:37;;;;;;;89.85;25.55;;;;;;;1.08;100.00;100495.75;5211448;28;20070;-70
2023/12/01 05:13:08;;;;;;;90.25;26.90;;;;;;;1.07;100.00;100507.28;5219249;28;20059;-70
2023/12/01 05:15:38;;;;;;;85.07;24.95;;;;;;;1.04;100.00;100510.97;5211065;28;20057;-70
2023/12/01 05:18:10;;;;;;;86.60;26.52;;;;;;;1.09;100.00;100508.00;5216360;28;20095;-70
2023/12/01 05:20:41;;;;;;;89.97;25.08;;;;;;;1.09;100.00;100509.81;5217251;28;20057;-70
2023/12/01 05:23:11;;;;;;;94.40;26.27;;;;;;;1.09;100.00;100507.16;5213779;28;20099;-70
2023/12/01 05:25:42;;;;;;;82.13;24.15;;;;;;;1.02;100.00;100515.53;5209787;28;20464;-70
2023/12/01 05:28:13;;;;;;;86.55;25.92;;;;;;;0.96;100.00;100516.00;5211020;28;20026;-70
2023/12/01 05:30:46;;;;;;;75.95;24.27;;;;;;;0.91;100.00;100515.50;5213626;28;20078;-70
2023/12/01 05:33:17;;;;;;;91.88;27.17;;;;;;;0.81;100.00;100525.03;5208609;28;20060;-70
2023/12/01 05:35:47;;;;;;;92.68;25.17;;;;;;;0.83;100.00;100523.13;5213473;28;20025;-70
2023/12/01 05:38:18;;;;;;;90.38;27.02;;;;;;;0.72;100.00;100529.19;5214643;28;20029;-70
2023/12/01 05:40:48;;;;;;;81.82;24.58;;;;;;;0.72;100.00;100523.91;5207069;28;20028;-70
2023/12/01 05:43:19;;;;;;;80.43;24.02;;;;;;;0.72;100.00;100523.91;5218469;28;20067;-70
2023/12/01 05:45:49;;;;;;;75.72;22.00;;;;;;;0.74;100.00;100521.16;5212077;28;20052;-70
2023/12/01 05:48:20;;;;;;;78.55;22.40;;;;;;;0.74;100.00;100522.00;5210188;28;20025;-72
2023/12/01 05:50:51;;;;;;;72.28;21.02;;;;;;;0.70;100.00;100525.81;5210267;28;20391;-72
2023/12/01 05:53:22;;;;;;;74.32;20.15;;;;;;;0.71;100.00;100516.09;5215846;28;20025;-72
2023/12/01 05:55:56;;;;;;;69.90;20.67;;;;;;;0.74;100.00;100522.00;5217144;28;20579;-72
2023/12/01 05:58:27;;;;;;;70.22;20.27;;;;;;;0.74;100.00;100527.28;5204551;28;20039;-72
2023/12/01 06:00:58;;;;;;;78.07;22.58;;;;;;;0.78;100.00;100530.53;5216253;28;20025;-72
2023/12/01 06:03:28;;;;;;;79.25;20.70;;;;;;;0.80;100.00;100535.69;5217156;28;20028;-72
2023/12/01 06:05:59;;;;;;;68.18;21.98;;;;;;;0.79;100.00;100537.50;5216046;28;20096;-72
2023/12/01 06:08:30;;;;;;;74.43;20.50;;;;;;;0.83;100.00;100544.25;5216758;28;20033;-72
2023/12/01 06:11:00;;;;;;;73.40;21.33;;;;;;;0.83;100.00;100538.13;5214346;28;20105;-72
2023/12/01 06:13:31;;;;;;;86.40;23.17;;;;;;;0.81;100.00;100545.34;5207497;28;20555;-72
2023/12/01 06:16:01;;;;;;;82.43;21.45;;;;;;;0.78;100.00;100544.59;5213975;28;20036;-72
2023/12/01 06:18:34;;;;;;;83.07;23.95;;;;;;;0.79;100.00;100553.34;5212539;28;20377;-72
2023/12/01 06:21:05;;;;;;;81.13;21.02;;;;;;;0.78;100.00;100551.66;5219645;28;20598;-72
2023/12/01 06:23:35;;;;;;;86.18;21.98;;;;;;;0.81;100.00;100547.97;5209208;28;20503;-72
2023/12/01 06:26:06;;;;;;;80.35;24.48;;;;;;;0.76;100.00;100545.66;5214223;28;20025;-72
2023/12/01 06:28:36;;;;;;;81.97;22.83;;;;;;;0.73;100.00;100553.78;5207524;28;20025;-72
2023/12/01 06:31:07;;;;;;;93.70;25.33;;;;;;;0.71;100.00;100561.00;5192148;28;20078;-72
2023/12/01 06:33:37;;;;;;;90.03;23.73;;;;;;;0.75;100.00;100562.44;5207637;28;20033;-69
2023/12/01 06:36:08;;;;;;;96.82;25.65;;;;;;;0.78;100.00;100562.22;5199133;28;20034;-70
2023/12/01 06:38:39;;;;;;;87.57;25.17;;;;;;;0.77;100.00;100564.03;5199647;28;20037;-69
2023/12/01 06:41:09;;;;;;;94.30;26.70;;;;;;;0.79;100.00;100566.53;5190549;28;20038;-69
2023/12/01 06:43:40;;;;;;;98.63;27.40;;;;;;;0.81;100.00;100563.81;5201447;28;20029;-69
2023/12/01 06:46:11;;;;;;;100.40;25.52;;;;;;;0.81;100.00;100564.66;5204768;28;20476;-70
2023/12/01 06:48:42;;;;;;;110.18;27.83;;;;;;;0.89;100.00;100569.38;5200132;28;20025;-70
2023/12/01 06:51:14;;;;;;;95.13;27.17;;;;;;;0.91;100.00;100563.03;5199103;28;20029;-70
2023/12/01 06:53:44;;;;;;;95.22;25.77;;;;;;;0.90;100.00;100576.34;5208530;28;20034;-70
2023/12/01 06:56:15;;;;;;;101.10;26.02;;;;;;;0.91;100.00;100572.75;5205853;28;20034;-70
2023/12/01 06:58:45;;;;;;;100.35;27.25;;;;;;;0.94;100.00;100575.16;5205635;28;20059;-70
2023/12/01 07:01:19;;;;;;;103.30;25.70;;;;;;;0.94;100.00;100569.88;5201010;28;20037;-70
2023/12/01 07:03:49;;;;;;;88.82;23.25;;;;;;;0.94;100.00;100569.88;5216640;28;20017;-69
2023/12/01 07:06:20;;;;;;;87.13;23.38;;;;;;;0.93;100.00;100568.19;5211321;28;20029;-70
2023/12/01 07:08:50;;;;;;;86.97;22.73;;;;;;;0.95;100.00;100576.84;5196974;28;20075;-70
2023/12/01 07:11:21;;;;;;;98.90;24.38;;;;;;;0.94;100.00;100575.16;5202972;28;20030;-70
2023/12/01 07:13:51;;;;;;;92.13;24.70;;;;;;;0.93;100.00;100576.97;5195060;28;20326;-70
2023/12/01 07:16:22;;;;;;;101.47;26.17;;;;;;;0.98;100.00;100576.63;5203271;28;20028;-70
2023/12/01 07:18:52;;;;;;;94.80;24.35;;;;;;;0.97;100.00;100573.16;5204949;28;20017;-69
2023/12/01 07:21:22;;;;;;;89.32;24.08;;;;;;;1.01;100.00;100581.72;5214034;28;20037;-70
2023/12/01 07:23:53;;;;;;;101.70;28.70;;;;;;;1.04;100.00;100589.38;5212784;28;20075;-70
2023/12/01 07:26:42;;;;;;;91.60;26.27;;;;;;;1.01;100.00;100584.34;5209843;28;20623;-70
2023/12/01 07:29:12;;;;;;;109.03;26.95;;;;;;;1.00;100.00;100580.00;5203331;28;20399;-70
2023/12/01 07:31:43;;;;;;;112.85;26.45;;;;;;;1.04;100.00;100584.09;5201900;28;20029;-70
2023/12/01 07:34:13;;;;;;;107.50;26.35;;;;;;;1.01;100.00;100577.25;5202353;28;20026;-70
2023/12/01 07:36:44;;;;;;;109.05;27.45;;;;;;;1.00;100.00;100585.28;5211204;28;20025;-69
2023/12/01 07:39:15;;;;;;;102.30;25.80;;;;;;;0.96;100.00;100582.03;5209914;28;20037;-69
2023/12/01 07:41:45;;;;;;;104.13;26.83;;;;;;;1.00;100.00;100587.91;5208580;28;20214;-70
2023/12/01 07:44:16;;;;;;;105.88;28.48;;;;;;;0.98;100.00;100584.56;5201274;28;20536;-70
2023/12/01 07:46:46;;;;;;;116.15;28.52;;;;;;;1.00;100.00;100590.56;5203390;28;20047;-70
2023/12/01 07:49:17;;;;;;;116.65;29.27;;;;;;;1.00;100.00;100594.06;5203779;28;20026;-70
2023/12/01 07:51:47;;;;;;;108.82;27.98;;;;;;;0.95;100.00;100587.41;5209320;28;20434;-69
2023/12/01 07:54:19;;;;;;;120.90;31.10;;;;;;;0.97;100.00;100599.56;5209995;28;20029;-70
2023/12/01 07:56:49;;;;;;;114.28;29.83;;;;;;;0.97;100.00;100594.28;5202528;28;20029;-69
2023/12/01 07:59:21;;;;;;;108.47;28.40;;;;;;;0.98;100.00;100598.59;5188742;28;20026;-70
2023/12/01 08:01:51;;;;;;;97.65;26.58;;;;;;;0.94;100.00;100596.28;5207357;28;20041;-70
2023/12/01 08:04:22;;;;;;;100.80;27.98;;;;;;;0.93;100.00;100603.38;5213506;28;20052;-70
2023/12/01 08:06:53;;;;;;;103.43;29.15;;;;;;;0.95;100.00;100601.47;5212537;28;20033;-70
2023/12/01 08:09:24;;;;;;;112.15;29.90;;;;;;;0.94;100.00;100605.06;5201407;28;20031;-69
2023/12/01 08:11:54;;;;;;;113.32;29.25;;;;;;;0.96;100.00;100610.25;5193974;28;20025;-70
2023/12/01 08:14:25;;;;;;;106.07;29.45;;;;;;;0.88;100.00;100613.44;5202907;28;20033;-70
2023/12/01 08:16:56;;;;;;;122.05;30.92;;;;;;;0.85;100.00;100612.78;5201492;28;20025;-69
2023/12/01 08:19:26;;;;;;;120.57;30.58;;;;;;;0.94;100.00;100607.69;5194769;28;20044;-69
2023/12/01 08:21:58;;;;;;;104.88;30.60;;;;;;;0.94;100.00;100612.97;5209047;28;20025;-70
2023/12/01 08:24:28;;;;;;;119.05;30.70;;;;;;;0.99;100.00;100620.59;5204347;28;20044;-69
2023/12/01 08:27:00;;;;;;;117.78;31.67;;;;;;;0.98;100.00;100626.81;5195416;28;20034;-70
2023/12/01 08:29:30;;;;;;;116.18;33.90;;;;;;;0.99;100.00;100628.50;5204967;28;20032;-70
2023/12/01 08:32:01;;;;;;;116.07;31.85;;;;;;;0.99;100.00;100623.22;5194653;28;20037;-70
2023/12/01 08:34:31;;;;;;;116.50;33.25;;;;;;;0.94;100.00;100623.56;5202784;28;20074;-70
2023/12/01 08:37:02;;;;;;;116.35;31.27;;;;;;;0.94;100.00;100635.91;5209469;28;20021;-70
2023/12/01 08:39:32;;;;;;;118.05;32.83;;;;;;;0.93;100.00;100635.06;5202492;28;20037;-70
2023/12/01 08:42:03;;;;;;;126.68;34.90;;;;;;;0.96;100.00;100628.75;5208724;28;20014;-69
2023/12/01 08:44:33;;;;;;;120.10;31.75;;;;;;;0.92;100.00;100627.28;5202582;28;20116;-70
2023/12/01 08:47:04;;;;;;;123.15;35.55;;;;;;;0.92;100.00;100635.19;5213804;28;20476;-69
2023/12/01 08:49:35;;;;;;;133.57;35.17;;;;;;;0.92;100.00;100640.47;5203816;28;20029;-69
2023/12/01 08:52:07;;;;;;;120.97;32.63;;;;;;;0.88;100.00;100642.47;5205601;28;20028;-69
2023/12/01 08:54:37;;;;;;;115.20;31.00;;;;;;;0.93;100.00;100642.16;5203091;28;20384;-70
2023/12/01 08:57:08;;;;;;;127.63;34.20;;;;;;;0.96;100.00;100649.88;5202281;28;20034;-69
2023/12/01 08:59:38;;;;;;;136.05;35.03;;;;;;;0.96;100.00;100647.22;5208324;28;20391;-69
2023/12/01 09:02:10;;;;;;;110.43;31.30;;;;;;;0.98;100.00;100643.50;5224476;28;20083;-70
2023/12/01 09:04:40;;;;;;;117.07;32.85;;;;;;;0.97;100.00;100654.19;5210753;28;20033;-70
2023/12/01 09:07:11;;;;;;;111.90;31.45;;;;;;;0.98;100.00;100656.72;5214146;28;20048;-70
2023/12/01 09:09:41;;;;;;;106.78;30.02;;;;;;;1.00;100.00;100651.31;5211643;28;20495;-69
2023/12/01 09:12:11;;;;;;;108.95;30.35;;;;;;;1.05;100.00;100654.47;5203130;28;20029;-70
2023/12/01 09:14:42;;;;;;;111.47;31.67;;;;;;;1.10;100.00;100665.56;5195630;28;20448;-70
2023/12/01 09:17:14;;;;;;;111.97;33.40;;;;;;;1.14;100.00;100664.41;5208563;28;20025;-69
2023/12/01 09:19:44;;;;;;;123.82;33.47;;;;;;;1.14;100.00;100661.75;5201090;28;20017;-70
2023/12/01 09:22:16;;;;;;;112.43;29.60;;;;;;;1.19;100.00;100667.53;5206424;28;20516;-70
2023/12/01 09:24:47;;;;;;;119.32;33.67;;;;;;;1.23;100.00;100665.53;5210146;28;20106;-69
2023/12/01 09:27:17;;;;;;;119.43;32.78;;;;;;;1.24;100.00;100667.22;5201101;28;20528;-70
2023/12/01 09:29:48;;;;;;;112.60;33.25;;;;;;;1.25;100.00;100676.81;5203079;28;20032;-70
2023/12/01 09:32:19;;;;;;;108.00;31.15;;;;;;;1.25;100.00;100676.81;5207320;28;20026;-70
2023/12/01 09:34:50;;;;;;;108.57;32.10;;;;;;;1.25;100.00;100675.03;5202971;28;20025;-70
2023/12/01 09:37:23;;;;;;;101.28;29.00;;;;;;;1.23;100.00;100674.31;5204554;28;20025;-70
2023/12/01 09:39:53;;;;;;;113.47;30.20;;;;;;;1.28;100.00;100674.81;5206042;28;20040;-70
2023/12/01 09:42:24;;;;;;;101.88;31.80;;;;;;;1.27;100.00;100682.88;5207632;28;20032;-69
2023/12/01 09:44:57;;;;;;;110.50;30.77;;;;;;;1.29;100.00;100680.94;5213143;28;20024;-71
2023/12/01 09:47:32;;;;;;;98.07;28.50;;;;;;;1.27;100.00;100686.34;5205465;28;20507;-70
2023/12/01 09:50:03;;;;;;;105.65;29.42;;;;;;;1.27;100.00;100685.50;5200816;28;20017;-70
2023/12/01 09:52:34;;;;;;;103.43;28.63;;;;;;;1.30;100.00;100687.91;5206591;28;20107;-69
2023/12/01 09:55:04;;;;;;;97.50;29.15;;;;;;;1.31;100.00;100686.13;5207506;28;20029;-70
2023/12/01 09:57:36;;;;;;;106.60;29.45;;;;;;;1.33;100.00;100686.88;5197748;28;20034;-70
2023/12/01 10:00:10;;;;;;;94.90;27.65;;;;;;;1.36;100.00;100686.66;5195207;28;20021;-70
2023/12/01 10:02:41;;;;;;;90.82;27.48;;;;;;;1.31;100.00;100689.63;5203127;28;20060;-70
2023/12/01 10:05:12;;;;;;;97.78;28.48;;;;;;;1.37;100.00;100683.88;5202989;28;21731;-70
2023/12/01 10:07:43;;;;;;;90.35;28.67;;;;;;;1.37;100.00;100690.97;5206892;28;20035;-70
2023/12/01 10:10:22;;;;;;;95.25;27.05;;;;;;;1.40;100.00;100688.94;5201966;28;20025;-70
2023/12/01 10:12:55;;;;;;;94.47;28.15;;;;;;;1.36;100.00;100695.44;5206256;28;20029;-70
2023/12/01 10:15:27;;;;;;;92.07;26.52;;;;;;;1.39;100.00;100691.69;5207941;28;20106;-70
2023/12/01 10:18:10;;;;;;;92.03;28.20;;;;;;;1.42;100.00;100688.84;5209256;28;20051;-70
2023/12/01 10:21:07;;;;;;;88.93;25.45;;;;;;;1.37;100.00;100688.34;5208154;28;20036;-70
2023/12/01 10:23:38;;;;;;;99.22;26.50;;;;;;;1.45;100.00;100685.97;5202582;28;20043;-70
2023/12/01 10:26:09;;;;;;;85.07;25.92;;;;;;;1.47;100.00;100684.91;5208507;28;20021;-70
2023/12/01 10:28:41;;;;;;;94.32;27.10;;;;;;;1.50;100.00;100683.81;5208850;28;20044;-70
2023/12/01 10:31:15;;;;;;;94.00;26.70;;;;;;;1.54;100.00;100682.66;5199921;28;20022;-70
2023/12/01 10:33:46;;;;;;;93.05;26.45;;;;;;;1.52;100.00;100679.28;5206352;28;20029;-71
2023/12/01 10:36:20;;;;;;;87.93;27.02;;;;;;;1.59;100.00;100677.03;5201935;28;20041;-70
2023/12/01 10:38:56;;;;;;;92.93;26.77;;;;;;;1.62;100.00;100676.81;5207589;28;20033;-70
2023/12/01 10:41:26;;;;;;;92.95;28.60;;;;;;;1.66;100.00;100678.28;5200670;28;20057;-70
2023/12/01 10:43:57;;;;;;;80.43;24.92;;;;;;;1.69;100.00;100673.59;5213150;28;20082;-70
2023/12/01 10:46:29;;;;;;;97.90;27.25;;;;;;;1.74;100.00;100678.53;5205939;28;20032;-70
2023/12/01 10:49:01;;;;;;;86.95;27.52;;;;;;;1.73;100.00;100672.41;5212242;28;20103;-70
2023/12/01 10:51:32;;;;;;;84.65;27.70;;;;;;;1.73;100.00;100674.22;5212254;28;20075;-70
2023/12/01 10:54:04;;;;;;;94.38;28.90;;;;;;;1.75;100.00;100673.13;5209772;28;20597;-70
2023/12/01 10:56:56;;;;;;;81.32;27.25;;;;;;;1.81;100.00;100670.06;5212104;28;20083;-70
2023/12/01 10:59:28;;;;;;;79.40;25.70;;;;;;;1.81;100.00;100662.13;5202425;28;20045;-70
2023/12/01 11:02:00;;;;;;;87.68;25.20;;;;;;;1.83;100.00;100664.63;5208162;28;20028;-71
2023/12/01 11:04:33;;;;;;;83.63;26.40;;;;;;;1.85;100.00;100661.88;5215219;28;20029;-70
2023/12/01 11:07:08;;;;;;;85.65;24.75;;;;;;;1.86;100.00;100650.31;5207239;28;20029;-71
2023/12/01 11:10:00;;;;;;;81.88;25.50;;;;;;;1.89;100.00;100658.03;5205204;28;20040;-70
2023/12/01 11:12:44;;;;;;;82.60;24.15;;;;;;;1.91;100.00;100653.47;5204009;28;20037;-70
2023/12/01 11:15:21;;;;;;;79.60;25.02;;;;;;;1.97;100.00;100658.31;5205246;28;20137;-71
2023/12/01 11:17:52;;;;;;;74.43;22.25;;;;;;;1.95;100.00;100652.28;5206757;28;20033;-71
2023/12/01 11:20:29;;;;;;;71.72;23.13;;;;;;;1.94;100.00;100651.44;5203813;28;20046;-71
2023/12/01 11:23:23;;;;;;;71.00;23.17;;;;;;;1.93;100.00;100649.75;5202098;28;20071;-71